createdAt,value
2019-03-12T00:00:22.796Z,4.60
2019-03-12T00:02:53.192Z,4.60
2019-03-12T00:05:23.610Z,4.60
2019-03-12T00:07:54.034Z,4.70
2019-03-12T00:10:24.458Z,4.70
2019-03-12T00:12:54.832Z,4.80
2019-03-12T00:15:25.196Z,4.80
2019-03-12T00:17:55.670Z,4.50
2019-03-12T00:20:26.030Z,4.50
2019-03-12T00:22:56.422Z,4.50
2019-03-12T00:25:26.794Z,4.60
2019-03-12T00:27:57.159Z,4.60
2019-03-12T00:30:27.497Z,4.60
2019-03-12T00:32:57.891Z,4.60
2019-03-12T00:35:28.314Z,4.60
2019-03-12T00:37:58.714Z,4.60
2019-03-12T00:40:29.060Z,4.70
2019-03-12T00:42:59.433Z,4.80
2019-03-12T00:45:29.778Z,4.60
2019-03-12T00:48:00.148Z,4.60
2019-03-12T00:50:30.506Z,4.60
2019-03-12T00:53:00.871Z,4.60
2019-03-12T00:55:31.253Z,4.60
2019-03-12T00:58:01.711Z,4.60
2019-03-12T01:00:32.067Z,4.50
2019-03-12T01:03:02.436Z,4.60
2019-03-12T01:05:32.794Z,4.60
2019-03-12T01:08:03.134Z,4.60
2019-03-12T01:10:33.532Z,4.70
2019-03-12T01:13:14.132Z,4.70
2019-03-12T01:15:44.521Z,4.70
2019-03-12T01:18:14.851Z,4.70
2019-03-12T01:20:45.243Z,4.70
2019-03-12T01:23:15.598Z,4.60
2019-03-12T01:25:45.985Z,4.50
2019-03-12T01:28:16.346Z,4.50
2019-03-12T01:30:46.705Z,4.30
2019-03-12T01:33:17.078Z,4.20
2019-03-12T01:35:47.450Z,4.20
2019-03-12T01:38:17.815Z,4.30
2019-03-12T01:40:48.191Z,4.30
2019-03-12T01:43:18.582Z,4.30
2019-03-12T01:45:48.963Z,4.40
2019-03-12T01:48:19.330Z,4.40
2019-03-12T01:50:49.693Z,4.20
2019-03-12T01:53:20.053Z,4.30
2019-03-12T01:55:50.445Z,4.30
2019-03-12T01:58:20.853Z,4.30
2019-03-12T02:00:51.234Z,4.10
2019-03-12T02:03:21.626Z,4.10
2019-03-12T02:05:52.014Z,4.10
2019-03-12T02:08:22.398Z,4.10
2019-03-12T02:10:52.899Z,4.20
2019-03-12T02:13:23.292Z,4.20
2019-03-12T02:15:53.670Z,4.30
2019-03-12T02:18:24.054Z,4.30
2019-03-12T02:20:54.435Z,4.30
2019-03-12T02:23:24.802Z,4.30
2019-03-12T02:25:55.174Z,4.30
2019-03-12T02:28:25.558Z,4.30
2019-03-12T02:30:55.955Z,4.40
2019-03-12T02:33:26.329Z,4.30
2019-03-12T02:35:56.763Z,4.50
2019-03-12T02:38:27.126Z,4.50
2019-03-12T02:40:57.526Z,4.50
2019-03-12T02:43:27.915Z,4.40
2019-03-12T02:45:58.254Z,4.40
2019-03-12T02:48:28.631Z,4.40
2019-03-12T02:50:59.016Z,4.40
2019-03-12T02:53:29.470Z,4.40
2019-03-12T02:56:01.875Z,4.30
2019-03-12T02:58:31.912Z,4.40
2019-03-12T03:01:02.271Z,4.30
2019-03-12T03:03:32.687Z,4.30
2019-03-12T03:06:21.986Z,4.30
2019-03-12T03:08:52.338Z,4.30
2019-03-12T03:11:22.710Z,4.10
2019-03-12T03:13:53.081Z,4.10
2019-03-12T03:16:24.426Z,4.00
2019-03-12T03:18:54.981Z,4.00
2019-03-12T03:21:25.340Z,4.00
2019-03-12T03:23:55.731Z,4.00
2019-03-12T03:26:26.135Z,4.00
2019-03-12T03:28:56.542Z,4.00
2019-03-12T03:31:26.899Z,4.10
2019-03-12T03:33:57.339Z,3.90
2019-03-12T03:36:27.723Z,3.80
2019-03-12T03:38:58.158Z,3.60
2019-03-12T03:41:28.518Z,3.50
2019-03-12T03:43:58.896Z,3.60
2019-03-12T03:46:29.264Z,3.50
2019-03-12T03:48:59.659Z,3.60
2019-03-12T03:51:30.044Z,3.50
2019-03-12T03:54:00.390Z,3.40
2019-03-12T03:56:30.766Z,3.50
2019-03-12T03:59:01.128Z,3.60
2019-03-12T04:01:31.579Z,3.60
2019-03-12T04:04:01.963Z,3.60
2019-03-12T04:06:34.412Z,3.40
2019-03-12T04:09:05.901Z,3.30
2019-03-12T04:11:36.291Z,3.40
2019-03-12T04:14:06.673Z,3.00
2019-03-12T04:16:37.104Z,3.10
2019-03-12T04:19:07.456Z,2.90
2019-03-12T04:21:37.886Z,3.00
2019-03-12T04:24:08.238Z,3.10
2019-03-12T04:26:38.616Z,3.10
2019-03-12T04:29:08.966Z,3.10
2019-03-12T04:31:39.352Z,3.10
2019-03-12T04:34:14.582Z,3.10
2019-03-12T04:36:44.986Z,3.00
2019-03-12T04:39:15.355Z,2.80
2019-03-12T04:41:45.709Z,2.70
2019-03-12T04:44:16.086Z,2.70
2019-03-12T04:46:46.499Z,2.60
2019-03-12T04:49:16.866Z,2.70
2019-03-12T04:51:47.256Z,2.70
2019-03-12T04:54:17.632Z,2.50
2019-03-12T04:56:48.027Z,2.60
2019-03-12T04:59:18.501Z,2.70
2019-03-12T05:01:49.118Z,2.70
2019-03-12T05:04:23.953Z,2.40
2019-03-12T05:06:55.001Z,2.50
2019-03-12T05:09:25.619Z,2.60
2019-03-12T05:11:56.140Z,2.60
2019-03-12T05:14:35.269Z,2.50
2019-03-12T05:17:13.174Z,2.50
2019-03-12T05:19:44.949Z,2.30
2019-03-12T05:22:16.576Z,2.30
2019-03-12T05:24:47.118Z,2.40
2019-03-12T05:27:17.758Z,2.50
2019-03-12T05:29:48.161Z,2.40
2019-03-12T05:32:18.520Z,2.20
2019-03-12T05:34:48.901Z,2.10
2019-03-12T05:37:19.373Z,2.20
2019-03-12T05:39:49.851Z,2.20
2019-03-12T05:42:20.186Z,2.10
2019-03-12T05:44:52.651Z,1.90
2019-03-12T05:47:23.029Z,1.70
2019-03-12T05:49:53.435Z,1.70
2019-03-12T05:52:23.766Z,1.60
2019-03-12T05:54:54.117Z,1.70
2019-03-12T05:57:24.469Z,1.70
2019-03-12T05:59:54.854Z,1.50
2019-03-12T06:02:25.229Z,1.50
2019-03-12T06:04:55.666Z,1.60
2019-03-12T06:07:26.101Z,1.60
2019-03-12T06:09:56.622Z,1.50
2019-03-12T06:12:27.006Z,1.50
2019-03-12T06:14:57.435Z,1.50
2019-03-12T06:17:27.867Z,1.60
2019-03-12T06:19:58.205Z,1.80
2019-03-12T06:22:28.546Z,2.00
2019-03-12T06:24:58.894Z,2.00
2019-03-12T06:27:29.314Z,1.80
2019-03-12T06:29:59.780Z,1.70
2019-03-12T06:32:48.074Z,1.70
2019-03-12T06:35:35.247Z,2.00
2019-03-12T06:38:15.585Z,2.10
2019-03-12T06:40:57.180Z,1.90
2019-03-12T06:43:45.141Z,2.00
2019-03-12T06:46:31.763Z,1.90
2019-03-12T06:49:19.341Z,2.00
2019-03-12T06:52:24.002Z,1.80
2019-03-12T06:55:02.900Z,1.90
2019-03-12T06:57:54.653Z,2.10
2019-03-12T07:00:42.913Z,2.30
2019-03-12T07:03:35.409Z,2.80
2019-03-12T07:06:37.066Z,3.10
2019-03-12T07:09:45.377Z,3.40
2019-03-12T07:12:23.227Z,3.30
2019-03-12T07:15:08.489Z,3.30
2019-03-12T07:17:55.645Z,3.40
2019-03-12T07:20:34.946Z,3.30
2019-03-12T07:23:33.195Z,3.10
2019-03-12T07:26:15.121Z,2.90
2019-03-12T07:29:10.534Z,2.80
2019-03-12T07:31:49.516Z,2.90
2019-03-12T07:34:48.007Z,3.00
2019-03-12T07:37:33.240Z,3.10
2019-03-12T07:40:31.575Z,3.00
2019-03-12T07:43:13.731Z,3.40
2019-03-12T07:45:52.852Z,3.60
2019-03-12T07:49:00.652Z,3.60
2019-03-12T07:51:55.839Z,3.70
2019-03-12T07:54:39.411Z,3.90
2019-03-12T07:57:24.369Z,4.00
2019-03-12T08:00:23.005Z,4.20
2019-03-12T08:03:21.228Z,4.30
2019-03-12T08:06:10.929Z,4.70
2019-03-12T08:08:58.843Z,5.40
2019-03-12T08:11:36.971Z,5.80
2019-03-12T08:14:32.384Z,5.60
2019-03-12T08:17:20.231Z,5.20
2019-03-12T08:20:18.618Z,5.20
2019-03-12T08:23:13.922Z,5.50
2019-03-12T08:26:09.601Z,5.60
2019-03-12T08:29:05.011Z,6.10
2019-03-12T08:31:54.401Z,6.20
2019-03-12T08:34:42.411Z,6.00
2019-03-12T08:37:31.426Z,5.80
2019-03-12T08:40:07.954Z,5.60
2019-03-12T08:43:06.326Z,5.80
2019-03-12T08:45:51.376Z,5.90
2019-03-12T08:48:37.759Z,5.40
2019-03-12T08:51:18.451Z,5.80
2019-03-12T08:54:06.504Z,5.70
2019-03-12T08:56:56.050Z,6.20
2019-03-12T08:59:45.340Z,6.10
2019-03-12T09:02:49.710Z,6.50
2019-03-12T09:05:29.114Z,6.90
2019-03-12T09:08:06.669Z,6.60
2019-03-12T09:10:47.256Z,6.80
2019-03-12T09:13:31.076Z,7.00
2019-03-12T09:16:32.492Z,6.90
2019-03-12T09:19:30.857Z,7.50
2019-03-12T09:22:18.286Z,6.80
2019-03-12T09:25:16.843Z,6.80
2019-03-12T09:28:27.248Z,7.40
2019-03-12T09:31:08.726Z,7.40
2019-03-12T09:34:00.799Z,6.70
2019-03-12T09:36:50.185Z,6.70
2019-03-12T09:39:39.482Z,7.40
2019-03-12T09:42:20.469Z,7.50
2019-03-12T09:44:57.925Z,7.50
2019-03-12T09:47:50.358Z,7.40
2019-03-12T09:50:25.421Z,7.10
2019-03-12T09:53:24.106Z,7.40
2019-03-12T09:56:13.414Z,7.90
2019-03-12T09:59:02.994Z,8.40
2019-03-12T10:01:55.353Z,8.20
2019-03-12T10:04:36.611Z,8.10
2019-03-12T10:07:28.702Z,8.10
2019-03-12T10:10:16.592Z,8.50
2019-03-12T10:13:07.907Z,8.40
2019-03-12T10:16:06.418Z,8.40
2019-03-12T10:18:57.510Z,9.10
2019-03-12T10:21:52.875Z,9.50
2019-03-12T10:24:40.807Z,9.10
2019-03-12T10:27:36.545Z,8.50
2019-03-12T10:30:30.333Z,9.00
2019-03-12T10:33:17.448Z,10.00
2019-03-12T10:36:24.987Z,9.90
2019-03-12T10:39:46.937Z,8.70
2019-03-12T10:42:36.167Z,9.10
2019-03-12T10:45:24.912Z,8.60
2019-03-12T10:47:55.650Z,9.30
2019-03-12T10:50:26.203Z,9.00
2019-03-12T10:52:56.710Z,9.10
2019-03-12T10:55:27.123Z,9.50
2019-03-12T10:57:57.521Z,9.60
2019-03-12T11:00:27.898Z,9.30
2019-03-12T11:02:58.289Z,9.00
2019-03-12T11:05:28.723Z,8.80
2019-03-12T11:07:59.110Z,8.90
2019-03-12T11:10:29.625Z,9.00
2019-03-12T11:13:00.069Z,9.20
2019-03-12T11:15:30.417Z,9.30
2019-03-12T11:18:00.818Z,8.80
2019-03-12T11:20:31.216Z,8.60
2019-03-12T11:23:01.623Z,8.60
2019-03-12T11:25:31.971Z,8.70
2019-03-12T11:28:02.396Z,8.90
2019-03-12T11:30:32.761Z,9.10
2019-03-12T11:33:03.167Z,8.80
2019-03-12T11:35:39.089Z,9.00
2019-03-12T11:38:05.739Z,9.20
2019-03-12T11:40:36.211Z,9.00
2019-03-12T11:43:06.679Z,9.10
2019-03-12T11:45:38.249Z,9.30
2019-03-12T11:48:09.375Z,9.30
2019-03-12T11:50:39.852Z,9.50
2019-03-12T11:53:10.257Z,9.60
2019-03-12T11:55:40.674Z,9.40
2019-03-12T11:58:11.150Z,9.10
2019-03-12T12:01:03.722Z,8.90
2019-03-12T12:03:34.352Z,9.10
2019-03-12T12:06:04.727Z,9.20
2019-03-12T12:08:35.192Z,9.50
2019-03-12T12:11:05.681Z,9.70
2019-03-12T12:13:36.217Z,9.70
2019-03-12T12:16:06.639Z,9.60
2019-03-12T12:18:37.002Z,9.50
2019-03-12T12:21:07.387Z,9.40
2019-03-12T12:23:37.762Z,9.60
2019-03-12T12:26:08.161Z,9.80
2019-03-12T12:28:38.581Z,9.90
2019-03-12T12:31:08.968Z,10.00
2019-03-12T12:33:39.362Z,9.90
2019-03-12T12:36:09.710Z,9.70
2019-03-12T12:38:40.061Z,9.70
2019-03-12T12:41:10.426Z,9.70
2019-03-12T12:43:40.810Z,9.70
2019-03-12T12:46:11.196Z,10.00
2019-03-12T12:48:41.593Z,10.00
2019-03-12T12:51:11.986Z,9.90
2019-03-12T12:53:42.368Z,9.70
2019-03-12T12:56:12.737Z,9.60
2019-03-12T12:58:43.133Z,9.60
2019-03-12T13:01:13.481Z,9.70
2019-03-12T13:03:43.922Z,9.70
2019-03-12T13:06:14.286Z,9.70
2019-03-12T13:08:44.658Z,9.90
2019-03-12T13:11:16.081Z,9.70
2019-03-12T13:13:46.446Z,9.70
2019-03-12T13:16:25.187Z,9.70
2019-03-12T13:18:48.970Z,9.70
2019-03-12T13:21:19.390Z,9.40
2019-03-12T13:23:49.801Z,9.50
2019-03-12T13:26:20.178Z,9.40
2019-03-12T13:28:50.566Z,9.20
2019-03-12T13:31:20.949Z,9.40
2019-03-12T13:33:51.694Z,9.20
2019-03-12T13:36:22.104Z,9.10
2019-03-12T13:38:52.517Z,9.00
2019-03-12T13:41:23.258Z,9.10
2019-03-12T13:43:53.732Z,9.10
2019-03-12T13:46:24.203Z,9.10
2019-03-12T13:48:54.669Z,9.00
2019-03-12T13:51:25.089Z,8.80
2019-03-12T13:53:55.537Z,9.10
2019-03-12T13:56:26.127Z,9.10
2019-03-12T13:58:56.621Z,9.30
2019-03-12T14:01:27.013Z,9.20
2019-03-12T14:04:09.622Z,9.10
2019-03-12T14:06:29.526Z,9.30
2019-03-12T14:08:59.907Z,9.50
2019-03-12T14:11:30.289Z,9.40
2019-03-12T14:14:00.673Z,9.30
2019-03-12T14:16:31.039Z,9.20
2019-03-12T14:19:01.394Z,9.10
2019-03-12T14:21:39.500Z,9.10
2019-03-12T14:24:09.966Z,9.10
2019-03-12T14:26:40.351Z,9.20
2019-03-12T14:29:10.743Z,9.20
2019-03-12T14:31:41.197Z,9.10
2019-03-12T14:34:11.590Z,9.20
2019-03-12T14:36:42.006Z,9.40
2019-03-12T14:39:12.432Z,9.30
2019-03-12T14:41:42.799Z,9.40
2019-03-12T14:44:13.273Z,9.30
2019-03-12T14:46:43.658Z,9.30
2019-03-12T14:49:14.128Z,9.20
2019-03-12T14:52:18.225Z,9.20
2019-03-12T14:54:48.602Z,9.30
2019-03-12T14:57:18.975Z,9.40
2019-03-12T14:59:49.372Z,9.60
2019-03-12T15:02:19.739Z,9.70
2019-03-12T15:04:50.129Z,9.70
2019-03-12T15:07:20.513Z,9.60
2019-03-12T15:09:50.971Z,9.40
2019-03-12T15:12:21.382Z,9.30
2019-03-12T15:14:51.794Z,9.50
2019-03-12T15:17:22.240Z,9.50
2019-03-12T15:19:52.656Z,9.40
2019-03-12T15:22:23.057Z,9.50
2019-03-12T15:24:53.429Z,9.50
2019-03-12T15:27:23.851Z,9.40
2019-03-12T15:29:54.266Z,9.40
2019-03-12T15:32:24.631Z,9.60
2019-03-12T15:34:55.006Z,9.50
2019-03-12T15:37:25.430Z,9.50
2019-03-12T15:39:55.826Z,9.50
2019-03-12T15:42:26.208Z,9.20
2019-03-12T15:44:56.575Z,9.30
2019-03-12T15:47:26.950Z,9.10
2019-03-12T15:49:57.337Z,9.00
2019-03-12T15:52:27.719Z,8.90
2019-03-12T15:54:58.138Z,9.00
2019-03-12T15:57:28.508Z,9.10
2019-03-12T15:59:58.901Z,9.20
2019-03-12T16:02:29.266Z,9.20
2019-03-12T16:04:59.649Z,9.10
2019-03-12T16:07:30.029Z,9.10
2019-03-12T16:10:00.672Z,9.00
2019-03-12T16:12:31.096Z,9.00
2019-03-12T16:15:01.463Z,9.10
2019-03-12T16:17:31.897Z,9.20
2019-03-12T16:20:02.267Z,9.20
2019-03-12T16:22:32.636Z,9.10
2019-03-12T16:25:03.034Z,9.10
2019-03-12T16:27:33.403Z,8.90
2019-03-12T16:30:04.040Z,8.80
2019-03-12T16:32:35.509Z,8.80
2019-03-12T16:35:06.332Z,8.80
2019-03-12T16:37:36.707Z,8.80
2019-03-12T16:40:07.472Z,8.80
2019-03-12T16:42:37.836Z,8.70
2019-03-12T16:45:09.129Z,8.70
2019-03-12T16:47:39.584Z,8.70
2019-03-12T16:50:10.186Z,8.60
2019-03-12T16:52:40.565Z,8.70
2019-03-12T16:55:11.697Z,8.70
2019-03-12T16:57:42.182Z,8.80
2019-03-12T17:00:12.829Z,8.50
2019-03-12T17:02:43.258Z,8.50
2019-03-12T17:05:13.974Z,8.40
2019-03-12T17:07:44.382Z,8.50
2019-03-12T17:10:15.606Z,8.50
2019-03-12T17:12:46.096Z,8.40
2019-03-12T17:15:16.706Z,8.30
2019-03-12T17:17:47.064Z,8.30
2019-03-12T17:20:17.597Z,8.30
2019-03-12T17:22:48.036Z,8.20
2019-03-12T17:25:18.455Z,8.30
2019-03-12T17:27:51.442Z,8.30
2019-03-12T17:30:21.051Z,8.40
2019-03-12T17:32:51.413Z,8.30
2019-03-12T17:35:23.654Z,8.20
2019-03-12T17:37:54.003Z,8.30
2019-03-12T17:40:24.384Z,8.30
2019-03-12T17:42:54.798Z,8.10
2019-03-12T17:45:25.218Z,8.30
2019-03-12T17:47:55.669Z,8.20
2019-03-12T17:50:26.197Z,8.20
2019-03-12T17:52:56.645Z,8.20
2019-03-12T17:55:27.070Z,7.90
2019-03-12T17:57:57.456Z,7.90
2019-03-12T18:00:28.846Z,8.10
2019-03-12T18:02:59.337Z,8.00
2019-03-12T18:05:29.768Z,8.00
2019-03-12T18:08:00.136Z,8.10
2019-03-12T18:10:30.532Z,8.10
2019-03-12T18:13:00.924Z,8.10
2019-03-12T18:15:31.330Z,8.00
2019-03-12T18:18:01.715Z,7.90
2019-03-12T18:20:32.163Z,7.80
2019-03-12T18:23:02.534Z,7.80
2019-03-12T18:25:33.120Z,7.80
2019-03-12T18:28:03.593Z,7.90
2019-03-12T18:30:33.985Z,7.80
2019-03-12T18:33:04.392Z,7.70
2019-03-12T18:35:34.760Z,7.70
2019-03-12T18:38:05.265Z,7.50
2019-03-12T18:40:35.708Z,7.60
2019-03-12T18:43:06.070Z,7.60
2019-03-12T18:45:36.527Z,7.60
2019-03-12T18:48:07.069Z,7.50
2019-03-12T18:50:37.448Z,7.40
2019-03-12T18:53:07.892Z,7.40
2019-03-12T18:56:13.912Z,7.50
2019-03-12T18:58:44.312Z,7.50
2019-03-12T19:01:15.805Z,7.50
2019-03-12T19:03:46.214Z,7.40
2019-03-12T19:06:16.623Z,7.20
2019-03-12T19:08:48.035Z,7.20
2019-03-12T19:11:19.214Z,7.30
2019-03-12T19:13:49.619Z,7.20
2019-03-12T19:16:20.003Z,7.40
2019-03-12T19:18:50.402Z,7.40
2019-03-12T19:21:20.858Z,7.30
2019-03-12T19:23:51.246Z,7.20
2019-03-12T19:26:21.592Z,7.30
2019-03-12T19:28:52.002Z,7.40
2019-03-12T19:31:53.258Z,7.30
2019-03-12T19:34:41.697Z,7.30
2019-03-12T19:37:12.111Z,7.30
2019-03-12T19:39:42.521Z,7.20
2019-03-12T19:42:12.897Z,7.30
2019-03-12T19:44:43.358Z,7.20
2019-03-12T19:47:13.772Z,7.10
2019-03-12T19:49:44.172Z,7.00
2019-03-12T19:52:14.545Z,7.00
2019-03-12T19:54:45.011Z,7.00
2019-03-12T19:57:15.599Z,7.00
2019-03-12T19:59:46.155Z,7.10
2019-03-12T20:02:17.846Z,7.10
2019-03-12T20:04:48.313Z,7.20
2019-03-12T20:07:18.765Z,7.10
2019-03-12T20:10:29.382Z,7.10
2019-03-12T20:13:19.378Z,7.00
2019-03-12T20:16:32.795Z,7.10
2019-03-12T20:19:48.087Z,7.10
2019-03-12T20:22:54.048Z,7.10
2019-03-12T20:26:00.447Z,7.20
2019-03-12T20:29:33.315Z,7.20
2019-03-12T20:32:30.622Z,7.20
2019-03-12T20:36:03.091Z,7.20
2019-03-12T20:39:11.193Z,7.10
2019-03-12T20:42:24.880Z,7.20
2019-03-12T20:45:27.701Z,7.20
2019-03-12T20:48:24.137Z,7.30
2019-03-12T20:51:30.295Z,7.30
2019-03-12T20:54:36.359Z,7.30
2019-03-12T20:57:42.411Z,7.20
2019-03-12T21:00:56.900Z,7.20
2019-03-12T21:04:05.086Z,7.30
2019-03-12T21:07:06.850Z,7.20
2019-03-12T21:10:24.459Z,7.30
2019-03-12T21:13:33.051Z,7.30
2019-03-12T21:16:53.499Z,7.30
2019-03-12T21:19:54.726Z,7.40
2019-03-12T21:22:59.651Z,7.40
2019-03-12T21:26:06.409Z,7.30
2019-03-12T21:29:10.178Z,7.50
2019-03-12T21:31:40.578Z,7.40
2019-03-12T21:34:10.985Z,7.60
2019-03-12T21:36:41.452Z,7.60
2019-03-12T21:39:12.263Z,7.60
2019-03-12T21:41:42.718Z,7.50
2019-03-12T21:44:13.263Z,7.50
2019-03-12T21:46:43.811Z,7.60
2019-03-12T21:49:14.214Z,7.60
2019-03-12T21:51:44.610Z,7.60
2019-03-12T21:54:14.985Z,7.60
2019-03-12T21:56:45.360Z,7.60
2019-03-12T21:59:15.758Z,7.60
2019-03-12T22:01:46.177Z,7.70
2019-03-12T22:04:16.583Z,7.70
2019-03-12T22:06:48.215Z,7.70
2019-03-12T22:09:18.585Z,7.80
2019-03-12T22:11:49.018Z,7.70
2019-03-12T22:14:19.394Z,7.60
2019-03-12T22:16:52.103Z,7.60
2019-03-12T22:19:22.521Z,7.60
2019-03-12T22:22:04.030Z,7.70
2019-03-12T22:24:34.412Z,7.70
2019-03-12T22:27:04.823Z,7.70
2019-03-12T22:29:35.203Z,7.70
2019-03-12T22:32:05.607Z,7.80
2019-03-12T22:34:36.899Z,7.80
2019-03-12T22:37:07.281Z,7.90
2019-03-12T22:39:37.746Z,7.90
2019-03-12T22:42:08.123Z,8.00
2019-03-12T22:44:38.477Z,8.00
2019-03-12T22:47:08.862Z,8.10
2019-03-12T22:49:39.333Z,8.10
2019-03-12T22:52:09.760Z,8.20
2019-03-12T22:54:40.112Z,8.20
2019-03-12T22:57:10.506Z,8.30
2019-03-12T22:59:40.867Z,8.30
2019-03-12T23:02:11.359Z,8.30
2019-03-12T23:04:41.763Z,8.40
2019-03-12T23:07:12.166Z,8.40
2019-03-12T23:09:42.622Z,8.50
2019-03-12T23:12:13.028Z,8.50
2019-03-12T23:14:43.424Z,8.60
2019-03-12T23:17:13.808Z,8.70
2019-03-12T23:19:44.348Z,8.80
2019-03-12T23:22:14.729Z,8.80
2019-03-12T23:24:45.279Z,8.80
2019-03-12T23:27:15.636Z,8.80
2019-03-12T23:29:46.018Z,8.90
2019-03-12T23:32:16.977Z,9.10
2019-03-12T23:34:47.374Z,9.20
2019-03-12T23:37:17.721Z,9.20
2019-03-12T23:39:48.104Z,9.20
2019-03-12T23:42:18.483Z,9.20
2019-03-12T23:44:48.904Z,9.20
2019-03-12T23:47:19.304Z,9.20
2019-03-12T23:49:49.676Z,9.30
2019-03-12T23:52:20.124Z,9.30
2019-03-12T23:54:50.534Z,9.20
2019-03-12T23:57:20.913Z,9.20
2019-03-12T23:59:51.300Z,9.00
